createdAt,value
2022-07-30T00:01:14.367Z,18.99
2022-07-30T00:03:41.019Z,19.08
2022-07-30T00:06:07.795Z,19.03
2022-07-30T00:08:35.064Z,19.10
2022-07-30T00:11:01.607Z,18.98
2022-07-30T00:13:28.184Z,19.04
2022-07-30T00:15:54.823Z,18.88
2022-07-30T00:18:22.418Z,18.94
2022-07-30T00:20:49.558Z,18.91
2022-07-30T00:23:17.339Z,18.82
2022-07-30T00:25:44.390Z,18.90
2022-07-30T00:28:11.053Z,18.81
2022-07-30T00:30:38.900Z,18.59
2022-07-30T00:33:05.535Z,18.44
2022-07-30T00:35:34.885Z,18.60
2022-07-30T00:38:01.601Z,18.65
2022-07-30T00:40:28.678Z,18.67
2022-07-30T00:42:55.269Z,18.63
2022-07-30T00:45:22.286Z,18.50
2022-07-30T00:47:48.964Z,18.49
2022-07-30T00:50:16.442Z,18.34
2022-07-30T00:52:43.876Z,18.08
2022-07-30T00:55:13.538Z,17.79
2022-07-30T00:57:41.324Z,18.02
2022-07-30T01:00:11.450Z,18.30
2022-07-30T01:02:38.236Z,18.29
2022-07-30T01:05:05.774Z,18.25
2022-07-30T01:07:32.562Z,18.32
2022-07-30T01:09:59.154Z,18.30
2022-07-30T01:12:27.385Z,18.22
2022-07-30T01:14:56.085Z,18.16
2022-07-30T01:17:22.856Z,18.08
2022-07-30T01:19:52.583Z,17.59
2022-07-30T01:22:28.995Z,17.49
2022-07-30T01:25:07.611Z,17.38
2022-07-30T01:27:40.411Z,17.64
2022-07-30T01:30:08.667Z,17.24
2022-07-30T01:32:38.906Z,17.07
2022-07-30T01:35:07.542Z,17.05
2022-07-30T01:37:35.036Z,16.93
2022-07-30T01:40:03.454Z,16.90
2022-07-30T01:42:31.065Z,16.90
2022-07-30T01:44:59.316Z,16.90
2022-07-30T01:47:28.384Z,16.97
2022-07-30T01:49:57.222Z,16.99
2022-07-30T01:52:26.804Z,16.91
2022-07-30T01:54:56.142Z,16.70
2022-07-30T01:57:23.433Z,16.74
2022-07-30T01:59:54.901Z,16.70
2022-07-30T02:02:21.657Z,16.71
2022-07-30T02:04:48.958Z,16.60
2022-07-30T02:07:23.122Z,16.55
2022-07-30T02:10:01.716Z,16.43
2022-07-30T02:12:34.146Z,16.37
2022-07-30T02:15:27.005Z,16.26
2022-07-30T02:18:03.189Z,16.22
2022-07-30T02:20:33.737Z,16.23
2022-07-30T02:23:07.105Z,16.30
2022-07-30T02:25:35.783Z,16.17
2022-07-30T02:28:09.413Z,16.16
2022-07-30T02:30:40.538Z,16.01
2022-07-30T02:33:10.688Z,15.90
2022-07-30T02:35:38.918Z,15.86
2022-07-30T02:38:06.789Z,15.85
2022-07-30T02:40:33.599Z,15.88
2022-07-30T02:43:01.576Z,15.84
2022-07-30T02:45:30.788Z,15.79
2022-07-30T02:48:03.943Z,15.67
2022-07-30T02:50:31.205Z,15.57
2022-07-30T02:52:59.526Z,15.52
2022-07-30T02:55:28.386Z,15.69
2022-07-30T02:57:56.427Z,15.79
2022-07-30T03:00:24.954Z,15.77
2022-07-30T03:02:56.643Z,15.68
2022-07-30T03:05:25.177Z,15.60
2022-07-30T03:07:58.242Z,15.45
2022-07-30T03:10:27.188Z,15.47
2022-07-30T03:12:55.058Z,15.29
2022-07-30T03:15:21.918Z,15.27
2022-07-30T03:17:53.900Z,15.39
2022-07-30T03:20:27.547Z,15.53
2022-07-30T03:22:55.583Z,15.53
2022-07-30T03:25:29.720Z,15.58
2022-07-30T03:28:00.212Z,15.56
2022-07-30T03:30:28.369Z,15.50
2022-07-30T03:32:56.161Z,15.37
2022-07-30T03:35:26.612Z,15.20
2022-07-30T03:37:55.359Z,15.20
2022-07-30T03:40:23.136Z,15.22
2022-07-30T03:42:50.672Z,15.13
2022-07-30T03:45:21.652Z,15.18
2022-07-30T03:47:50.008Z,15.15
2022-07-30T03:50:16.785Z,15.39
2022-07-30T03:52:44.136Z,15.24
2022-07-30T03:55:16.024Z,15.44
2022-07-30T03:57:49.008Z,15.43
2022-07-30T04:00:17.324Z,15.20
2022-07-30T04:02:49.689Z,15.09
2022-07-30T04:05:19.373Z,15.42
2022-07-30T04:07:47.132Z,15.65
2022-07-30T04:10:16.609Z,15.69
2022-07-30T04:13:09.742Z,15.67
2022-07-30T04:16:41.535Z,15.73
2022-07-30T04:18:56.372Z,15.41
2022-07-30T04:21:26.965Z,15.31
2022-07-30T04:24:03.837Z,15.32
2022-07-30T04:26:34.136Z,15.27
2022-07-30T04:29:01.846Z,15.23
2022-07-30T04:31:29.960Z,15.26
2022-07-30T04:34:04.776Z,15.26
2022-07-30T04:36:39.426Z,15.53
2022-07-30T04:39:06.081Z,15.71
2022-07-30T04:41:36.272Z,15.79
2022-07-30T04:44:29.353Z,15.77
2022-07-30T04:47:25.510Z,15.89
2022-07-30T04:50:15.219Z,15.94
2022-07-30T04:52:44.449Z,15.92
2022-07-30T04:55:15.176Z,16.10
2022-07-30T04:57:45.168Z,16.08
2022-07-30T05:00:12.320Z,16.09
2022-07-30T05:02:42.015Z,16.11
2022-07-30T05:05:11.998Z,16.22
2022-07-30T05:07:39.608Z,16.28
2022-07-30T05:10:09.131Z,16.28
2022-07-30T05:12:40.021Z,16.39
2022-07-30T05:15:08.994Z,16.46
2022-07-30T05:17:36.987Z,16.54
2022-07-30T05:20:06.651Z,16.66
2022-07-30T05:22:51.109Z,16.68
2022-07-30T05:25:18.640Z,16.70
2022-07-30T05:27:45.527Z,16.82
2022-07-30T05:30:12.385Z,16.89
2022-07-30T05:32:44.060Z,16.94
2022-07-30T05:35:13.407Z,17.04
2022-07-30T05:37:40.069Z,17.12
2022-07-30T05:40:07.617Z,17.23
2022-07-30T05:43:00.311Z,17.29
2022-07-30T05:45:27.724Z,17.34
2022-07-30T05:47:54.312Z,17.34
2022-07-30T05:50:21.036Z,17.38
2022-07-30T05:52:47.897Z,17.43
2022-07-30T05:55:36.437Z,17.46
2022-07-30T05:58:17.598Z,17.53
2022-07-30T06:00:44.551Z,17.61
2022-07-30T06:03:11.276Z,17.66
2022-07-30T06:05:56.496Z,17.77
2022-07-30T06:08:23.116Z,17.83
2022-07-30T06:10:49.832Z,17.92
2022-07-30T06:13:16.474Z,17.90
2022-07-30T06:15:43.112Z,18.00
2022-07-30T06:18:09.780Z,18.04
2022-07-30T06:20:41.907Z,18.17
2022-07-30T06:23:21.311Z,18.26
2022-07-30T06:26:02.218Z,18.37
2022-07-30T06:28:37.591Z,18.52
2022-07-30T06:31:12.363Z,18.55
2022-07-30T06:33:39.013Z,18.63
2022-07-30T06:36:05.974Z,18.99
2022-07-30T06:38:41.855Z,19.05
2022-07-30T06:41:15.797Z,19.24
2022-07-30T06:43:51.512Z,19.39
2022-07-30T06:46:41.302Z,19.56
2022-07-30T06:49:10.522Z,19.64
2022-07-30T06:51:37.214Z,20.00
2022-07-30T06:54:03.994Z,20.14
2022-07-30T06:56:30.556Z,20.46
2022-07-30T06:59:02.986Z,20.60
2022-07-30T07:01:48.201Z,20.55
2022-07-30T07:04:15.019Z,20.85
2022-07-30T07:06:41.691Z,20.76
2022-07-30T07:09:14.546Z,21.48
2022-07-30T07:11:47.812Z,21.45
2022-07-30T07:14:18.026Z,21.82
2022-07-30T07:16:44.894Z,22.41
2022-07-30T07:20:01.684Z,22.94
2022-07-30T07:22:34.571Z,23.01
2022-07-30T07:25:01.253Z,23.55
2022-07-30T07:27:30.845Z,23.34
2022-07-30T07:30:04.945Z,23.43
2022-07-30T07:32:35.176Z,23.73
2022-07-30T07:35:02.639Z,24.01
2022-07-30T07:37:29.607Z,24.08
2022-07-30T07:39:56.392Z,23.71
2022-07-30T07:42:23.584Z,23.07
2022-07-30T07:44:50.792Z,23.27
2022-07-30T07:47:18.238Z,24.04
2022-07-30T07:49:57.702Z,24.92
2022-07-30T07:52:24.376Z,23.64
2022-07-30T07:54:50.980Z,23.76
2022-07-30T07:57:18.017Z,23.84
2022-07-30T07:59:47.109Z,23.89
2022-07-30T08:02:21.242Z,23.47
2022-07-30T08:05:06.824Z,24.02
2022-07-30T08:07:50.702Z,24.07
2022-07-30T08:10:49.165Z,24.50
2022-07-30T08:13:51.399Z,24.68
2022-07-30T08:16:37.933Z,24.19
2022-07-30T08:19:21.309Z,24.05
2022-07-30T08:22:06.565Z,24.71
2022-07-30T08:24:33.404Z,24.50
2022-07-30T08:27:00.653Z,25.25
2022-07-30T08:29:27.634Z,24.57
2022-07-30T08:31:54.331Z,24.88
2022-07-30T08:34:25.531Z,25.45
2022-07-30T08:36:53.248Z,25.11
2022-07-30T08:39:19.980Z,25.01
2022-07-30T08:41:47.126Z,25.42
2022-07-30T08:44:18.682Z,25.89
2022-07-30T08:46:50.751Z,26.43
2022-07-30T08:49:28.009Z,25.41
2022-07-30T08:51:55.543Z,25.39
2022-07-30T08:54:41.363Z,26.02
2022-07-30T08:57:08.432Z,25.66
2022-07-30T09:00:00.157Z,26.03
2022-07-30T09:02:27.549Z,26.94
2022-07-30T09:05:04.862Z,27.05
2022-07-30T09:07:35.703Z,27.39
2022-07-30T09:10:05.500Z,26.96
2022-07-30T09:12:38.131Z,27.07
2022-07-30T09:15:09.448Z,26.76
2022-07-30T09:17:50.078Z,27.75
2022-07-30T09:20:17.781Z,27.29
2022-07-30T09:22:50.118Z,28.83
2022-07-30T09:25:57.040Z,29.06
2022-07-30T09:28:53.346Z,27.95
2022-07-30T09:31:56.668Z,27.81
2022-07-30T09:34:46.047Z,28.40
2022-07-30T09:37:33.677Z,27.97
2022-07-30T09:40:18.879Z,29.41
2022-07-30T09:43:13.284Z,27.61
2022-07-30T09:46:01.648Z,28.07
2022-07-30T09:48:28.755Z,28.40
2022-07-30T09:50:57.394Z,28.96
2022-07-30T09:53:25.019Z,28.80
2022-07-30T09:55:52.067Z,27.48
2022-07-30T09:58:27.106Z,27.92
2022-07-30T10:01:01.570Z,27.60
2022-07-30T10:03:54.604Z,28.00
2022-07-30T10:06:48.564Z,28.57
2022-07-30T10:09:37.320Z,27.81
2022-07-30T10:12:05.986Z,27.58
2022-07-30T10:14:42.691Z,27.41
2022-07-30T10:17:10.449Z,26.31
2022-07-30T10:19:41.951Z,27.42
2022-07-30T10:22:27.959Z,28.03
2022-07-30T10:25:18.872Z,28.47
2022-07-30T10:28:14.641Z,29.27
2022-07-30T10:30:43.642Z,28.82
2022-07-30T10:33:34.929Z,26.95
2022-07-30T10:35:59.065Z,26.26
2022-07-30T10:38:30.318Z,27.29
2022-07-30T10:41:01.656Z,27.46
2022-07-30T10:43:52.312Z,26.36
2022-07-30T10:46:40.499Z,26.37
2022-07-30T10:49:18.601Z,26.79
2022-07-30T10:51:50.779Z,28.90
2022-07-30T10:54:36.508Z,29.63
2022-07-30T10:57:32.108Z,29.10
2022-07-30T10:59:59.993Z,27.59
2022-07-30T11:02:29.312Z,26.99
2022-07-30T11:05:27.130Z,27.44
2022-07-30T11:08:36.391Z,28.36
2022-07-30T11:12:05.763Z,27.64
2022-07-30T11:14:15.769Z,27.24
2022-07-30T11:16:42.838Z,28.06
2022-07-30T11:19:57.032Z,29.46
2022-07-30T11:22:41.240Z,28.29
2022-07-30T11:25:13.005Z,28.89
2022-07-30T11:27:41.104Z,27.88
2022-07-30T11:30:17.882Z,28.42
2022-07-30T11:32:50.551Z,28.08
2022-07-30T11:35:23.310Z,29.40
2022-07-30T11:37:55.960Z,29.85
2022-07-30T11:40:26.204Z,27.92
2022-07-30T11:43:20.678Z,27.53
2022-07-30T11:46:18.047Z,27.30
2022-07-30T11:48:56.927Z,29.22
2022-07-30T11:51:24.013Z,29.56
2022-07-30T11:54:03.658Z,29.76
2022-07-30T11:56:30.419Z,29.00
2022-07-30T11:59:05.369Z,29.06
2022-07-30T12:01:33.611Z,27.85
2022-07-30T12:04:05.161Z,28.99
2022-07-30T12:06:32.274Z,30.15
2022-07-30T12:08:59.731Z,29.22
2022-07-30T12:11:32.911Z,29.20
2022-07-30T12:14:02.175Z,30.18
2022-07-30T12:16:30.933Z,29.00
2022-07-30T12:19:05.491Z,29.92
2022-07-30T12:21:32.714Z,29.95
2022-07-30T12:24:05.314Z,30.07
2022-07-30T12:26:34.433Z,29.92
2022-07-30T12:29:05.273Z,29.59
2022-07-30T12:31:38.466Z,30.40
2022-07-30T12:34:23.173Z,30.25
2022-07-30T12:36:50.194Z,30.14
2022-07-30T12:39:22.235Z,29.72
2022-07-30T12:41:51.079Z,30.05
2022-07-30T12:44:41.687Z,30.97
2022-07-30T12:47:35.522Z,30.03
2022-07-30T12:50:03.915Z,29.06
2022-07-30T12:52:33.711Z,29.53
2022-07-30T12:55:09.072Z,30.15
2022-07-30T12:57:55.662Z,30.25
2022-07-30T13:00:24.594Z,29.95
2022-07-30T13:02:51.562Z,30.14
2022-07-30T13:05:18.292Z,29.20
2022-07-30T13:07:59.068Z,29.50
2022-07-30T13:10:31.257Z,29.26
2022-07-30T13:12:59.030Z,30.03
2022-07-30T13:15:26.393Z,30.74
2022-07-30T13:17:53.024Z,30.39
2022-07-30T13:20:19.815Z,29.98
2022-07-30T13:22:46.465Z,29.89
2022-07-30T13:25:13.519Z,29.38
2022-07-30T13:27:40.198Z,29.37
2022-07-30T13:30:07.829Z,29.59
2022-07-30T13:32:35.374Z,29.25
2022-07-30T13:35:02.222Z,29.14
2022-07-30T13:37:38.333Z,29.67
2022-07-30T13:40:06.919Z,30.03
2022-07-30T13:42:33.669Z,29.33
2022-07-30T13:45:00.321Z,29.86
2022-07-30T13:47:26.921Z,29.44
2022-07-30T13:49:53.622Z,29.62
2022-07-30T13:52:20.187Z,29.35
2022-07-30T13:54:46.829Z,29.35
2022-07-30T13:57:13.476Z,29.85
2022-07-30T13:59:40.039Z,30.71
2022-07-30T14:02:06.673Z,29.28
2022-07-30T14:04:33.290Z,29.82
2022-07-30T14:07:00.123Z,30.95
2022-07-30T14:09:26.983Z,31.51
2022-07-30T14:11:54.085Z,31.09
2022-07-30T14:14:22.584Z,29.69
2022-07-30T14:16:53.709Z,29.83
2022-07-30T14:19:23.116Z,30.35
2022-07-30T14:21:52.867Z,30.16
2022-07-30T14:24:20.549Z,30.89
2022-07-30T14:26:47.148Z,30.77
2022-07-30T14:29:13.885Z,31.36
2022-07-30T14:31:40.777Z,30.65
2022-07-30T14:34:07.605Z,29.91
2022-07-30T14:36:34.819Z,29.44
2022-07-30T14:39:04.752Z,29.07
2022-07-30T14:41:31.853Z,30.41
2022-07-30T14:43:58.507Z,29.80
2022-07-30T14:46:25.095Z,29.65
2022-07-30T14:48:51.773Z,30.03
2022-07-30T14:51:24.276Z,29.13
2022-07-30T14:53:52.214Z,28.59
2022-07-30T14:56:19.465Z,28.34
2022-07-30T14:58:46.325Z,29.05
2022-07-30T15:01:16.675Z,28.96
2022-07-30T15:03:45.315Z,29.70
2022-07-30T15:06:13.050Z,29.13
2022-07-30T15:08:39.676Z,29.01
2022-07-30T15:11:08.035Z,29.19
2022-07-30T15:13:37.080Z,29.14
2022-07-30T15:16:16.365Z,28.72
2022-07-30T15:18:42.925Z,29.18
2022-07-30T15:21:09.557Z,28.71
2022-07-30T15:23:36.223Z,29.48
2022-07-30T15:26:02.812Z,28.73
2022-07-30T15:28:29.383Z,28.89
2022-07-30T15:30:56.113Z,28.73
2022-07-30T15:33:22.774Z,29.20
2022-07-30T15:35:49.594Z,28.69
2022-07-30T15:38:16.327Z,29.04
2022-07-30T15:40:43.827Z,28.75
2022-07-30T15:43:10.667Z,28.32
2022-07-30T15:45:51.295Z,28.62
2022-07-30T15:48:26.631Z,28.71
2022-07-30T15:51:01.798Z,29.10
2022-07-30T15:53:30.262Z,28.60
2022-07-30T15:55:58.000Z,28.50
2022-07-30T15:58:24.640Z,28.46
2022-07-30T16:00:51.309Z,28.31
2022-07-30T16:03:18.094Z,28.47
2022-07-30T16:05:52.417Z,28.48
2022-07-30T16:08:20.610Z,28.23
2022-07-30T16:10:48.108Z,27.90
2022-07-30T16:13:15.017Z,28.23
2022-07-30T16:15:42.766Z,28.12
2022-07-30T16:18:09.431Z,27.96
2022-07-30T16:20:36.046Z,27.90
2022-07-30T16:23:02.771Z,28.01
2022-07-30T16:25:29.397Z,27.92
2022-07-30T16:27:56.011Z,27.68
2022-07-30T16:30:27.561Z,27.93
2022-07-30T16:32:56.430Z,27.36
2022-07-30T16:35:23.513Z,27.82
2022-07-30T16:37:50.375Z,27.68
2022-07-30T16:40:16.972Z,27.45
2022-07-30T16:42:43.669Z,27.18
2022-07-30T16:45:10.539Z,27.36
2022-07-30T16:47:37.218Z,27.38
2022-07-30T16:50:04.800Z,27.36
2022-07-30T16:52:31.457Z,26.95
2022-07-30T16:54:58.163Z,26.93
2022-07-30T16:57:24.753Z,26.58
2022-07-30T16:59:51.354Z,26.74
2022-07-30T17:02:17.989Z,26.75
2022-07-30T17:04:44.553Z,26.50
2022-07-30T17:07:11.222Z,26.29
2022-07-30T17:09:37.810Z,26.08
2022-07-30T17:12:12.305Z,26.24
2022-07-30T17:14:41.228Z,26.27
2022-07-30T17:17:13.795Z,26.24
2022-07-30T17:19:40.827Z,26.15
2022-07-30T17:22:07.404Z,26.07
2022-07-30T17:24:34.013Z,25.94
2022-07-30T17:27:00.842Z,25.99
2022-07-30T17:29:27.446Z,25.72
2022-07-30T17:31:55.632Z,25.61
2022-07-30T17:34:22.266Z,25.68
2022-07-30T17:36:52.187Z,25.63
2022-07-30T17:40:26.280Z,25.47
2022-07-30T17:42:07.819Z,25.42
2022-07-30T17:44:35.532Z,25.36
2022-07-30T17:47:02.278Z,25.16
2022-07-30T17:51:57.111Z,25.14
2022-07-30T17:54:23.792Z,25.08
2022-07-30T17:56:50.426Z,24.95
2022-07-30T17:59:16.977Z,24.85
2022-07-30T18:01:43.569Z,24.80
2022-07-30T18:04:10.214Z,24.72
2022-07-30T18:06:36.824Z,24.55
2022-07-30T18:09:05.020Z,24.44
2022-07-30T18:11:31.681Z,24.48
2022-07-30T18:13:58.306Z,24.41
2022-07-30T18:16:25.457Z,24.35
2022-07-30T18:18:52.142Z,24.32
2022-07-30T18:21:18.709Z,24.19
2022-07-30T18:23:45.409Z,24.12
2022-07-30T18:26:12.604Z,24.16
2022-07-30T18:28:39.242Z,24.06
2022-07-30T18:31:06.173Z,24.00
2022-07-30T18:33:32.948Z,23.89
2022-07-30T18:35:59.685Z,23.89
2022-07-30T18:38:26.303Z,23.71
2022-07-30T18:40:58.834Z,23.70
2022-07-30T18:43:30.762Z,23.68
2022-07-30T18:45:58.452Z,23.44
2022-07-30T18:48:25.268Z,23.51
2022-07-30T18:50:53.047Z,23.49
2022-07-30T18:53:19.683Z,23.31
2022-07-30T18:55:46.336Z,23.30
2022-07-30T18:58:12.914Z,23.24
2022-07-30T19:00:44.134Z,23.25
2022-07-30T19:03:16.462Z,23.16
2022-07-30T19:05:45.490Z,23.12
2022-07-30T19:08:12.311Z,23.04
2022-07-30T19:10:40.042Z,22.99
2022-07-30T19:13:06.822Z,22.97
2022-07-30T19:15:33.553Z,22.89
2022-07-30T19:18:00.132Z,22.81
2022-07-30T19:20:26.871Z,22.77
2022-07-30T19:23:03.841Z,22.71
2022-07-30T19:25:32.467Z,22.66
2022-07-30T19:27:59.757Z,22.64
2022-07-30T19:30:26.609Z,22.61
2022-07-30T19:32:53.232Z,22.54
2022-07-30T19:35:19.911Z,22.45
2022-07-30T19:37:47.006Z,22.40
2022-07-30T19:40:14.103Z,22.38
2022-07-30T19:42:41.680Z,22.28
2022-07-30T19:45:11.768Z,22.23
2022-07-30T19:47:39.588Z,22.23
2022-07-30T19:50:10.197Z,22.18
2022-07-30T19:52:37.903Z,22.12
2022-07-30T19:55:17.168Z,22.12
2022-07-30T19:57:54.276Z,22.06
2022-07-30T20:00:25.098Z,22.09
2022-07-30T20:02:52.681Z,22.07
2022-07-30T20:05:20.261Z,22.03
2022-07-30T20:07:51.454Z,22.05
2022-07-30T20:10:19.474Z,21.98
2022-07-30T20:12:49.664Z,21.82
2022-07-30T20:15:17.151Z,21.66
2022-07-30T20:17:43.823Z,21.81
2022-07-30T20:20:13.751Z,21.91
2022-07-30T20:22:41.077Z,21.86
2022-07-30T20:25:09.103Z,21.90
2022-07-30T20:27:38.948Z,21.75
2022-07-30T20:30:08.199Z,21.77
2022-07-30T20:32:36.759Z,21.59
2022-07-30T20:35:03.942Z,21.71
2022-07-30T20:37:30.532Z,21.69
2022-07-30T20:39:57.309Z,21.67
2022-07-30T20:42:24.751Z,21.67
2022-07-30T20:44:53.518Z,21.67
2022-07-30T20:47:34.609Z,21.71
2022-07-30T20:50:14.121Z,21.65
2022-07-30T20:52:46.709Z,21.55
2022-07-30T20:55:16.845Z,21.54
2022-07-30T20:58:00.234Z,21.54
2022-07-30T21:00:31.635Z,21.50
2022-07-30T21:02:58.369Z,21.50
2022-07-30T21:05:30.317Z,21.47
2022-07-30T21:07:58.191Z,21.52
2022-07-30T21:10:25.480Z,21.55
2022-07-30T21:12:53.362Z,21.46
2022-07-30T21:15:25.332Z,21.44
2022-07-30T21:17:54.579Z,21.37
2022-07-30T21:20:27.757Z,21.35
2022-07-30T21:23:10.931Z,21.27
2022-07-30T21:26:00.068Z,21.29
2022-07-30T21:28:28.083Z,21.27
2022-07-30T21:30:57.220Z,21.35
2022-07-30T21:33:24.335Z,21.25
2022-07-30T21:35:57.967Z,21.32
2022-07-30T21:38:26.609Z,21.33
2022-07-30T21:40:53.573Z,21.31
2022-07-30T21:43:29.484Z,21.31
2022-07-30T21:45:58.382Z,21.30
2022-07-30T21:48:26.281Z,21.32
2022-07-30T21:50:54.986Z,21.20
2022-07-30T21:53:29.885Z,21.03
2022-07-30T21:56:08.459Z,21.08
2022-07-30T21:58:35.071Z,20.74
2022-07-30T22:01:17.188Z,20.56
2022-07-30T22:04:03.307Z,20.56
2022-07-30T22:06:38.340Z,20.44
2022-07-30T22:09:22.210Z,20.49
2022-07-30T22:12:00.687Z,20.43
2022-07-30T22:14:29.057Z,20.44
2022-07-30T22:16:57.010Z,20.41
2022-07-30T22:19:23.782Z,20.41
2022-07-30T22:21:52.949Z,20.36
2022-07-30T22:24:29.873Z,20.42
2022-07-30T22:27:00.959Z,20.37
2022-07-30T22:29:27.989Z,20.38
2022-07-30T22:32:01.851Z,20.34
2022-07-30T22:34:28.790Z,20.36
2022-07-30T22:36:55.374Z,20.33
2022-07-30T22:39:24.308Z,20.32
2022-07-30T22:41:59.096Z,20.29
2022-07-30T22:44:27.640Z,20.23
2022-07-30T22:46:56.167Z,20.24
2022-07-30T22:49:24.487Z,20.13
2022-07-30T22:52:23.615Z,20.04
2022-07-30T22:54:53.105Z,20.04
2022-07-30T22:57:22.954Z,20.10
2022-07-30T23:00:00.266Z,20.12
2022-07-30T23:02:30.631Z,19.99
2022-07-30T23:04:57.197Z,20.06
2022-07-30T23:07:34.071Z,20.09
2022-07-30T23:10:17.691Z,20.05
2022-07-30T23:12:47.086Z,20.02
2022-07-30T23:15:13.934Z,20.08
2022-07-30T23:17:40.776Z,20.10
2022-07-30T23:20:09.942Z,20.12
2022-07-30T23:22:36.713Z,20.12
2022-07-30T23:25:06.384Z,20.17
2022-07-30T23:27:33.418Z,20.10
2022-07-30T23:30:00.012Z,19.94
2022-07-30T23:32:26.651Z,20.02
2022-07-30T23:34:53.227Z,20.11
2022-07-30T23:37:19.879Z,20.19
2022-07-30T23:39:46.715Z,20.20
2022-07-30T23:42:13.321Z,20.13
2022-07-30T23:44:39.877Z,20.09
2022-07-30T23:47:07.530Z,20.09
2022-07-30T23:49:34.257Z,20.03
2022-07-30T23:52:00.867Z,20.07
2022-07-30T23:54:28.913Z,20.13
2022-07-30T23:56:56.343Z,20.10
2022-07-30T23:59:24.164Z,20.10
